Time;durP1;ratioP1;P1;durP2;ratioP2;P2;SDS_P1;SDS_P2;PMS_P1;PMS_P2;Temp;Humidity;BMP_temperature;BMP_pressure;BME280_temperature;BME280_humidity;BME280_pressure;Samples;Min_cycle;Max_cycle;Signal;HPM_P1;HPM_P2
2022/03/11 00:00:08;;;;;;;22.63;13.57;;;10.80;99.90;;;;;;4862558;29;20030;-91
2022/03/11 00:02:36;;;;;;;24.25;14.18;;;10.70;99.90;;;;;;4863805;29;20114;-91
2022/03/11 00:05:03;;;;;;;26.02;14.35;;;10.70;99.90;;;;;;4867191;29;20025;-91
2022/03/11 00:07:30;;;;;;;29.63;15.15;;;10.70;99.90;;;;;;4881800;29;20065;-90
2022/03/11 00:09:57;;;;;;;26.73;14.52;;;10.70;99.90;;;;;;4884306;29;20097;-89
2022/03/11 00:12:24;;;;;;;25.15;14.23;;;10.70;99.90;;;;;;4882263;29;20022;-91
2022/03/11 00:14:50;;;;;;;31.05;16.85;;;10.70;99.90;;;;;;4876396;29;20030;-90
2022/03/11 00:17:16;;;;;;;28.92;15.10;;;10.70;99.90;;;;;;4871830;29;20041;-89
2022/03/11 00:19:44;;;;;;;24.23;13.75;;;10.60;99.90;;;;;;4860080;29;20040;-89
2022/03/11 00:22:11;;;;;;;27.65;15.10;;;10.60;99.90;;;;;;4874085;29;20029;-90
2022/03/11 00:24:37;;;;;;;25.63;14.73;;;10.60;99.90;;;;;;4858605;29;20060;-90
2022/03/11 00:27:05;;;;;;;32.05;16.67;;;10.60;99.90;;;;;;4858271;29;20033;-91
2022/03/11 00:29:30;;;;;;;35.35;17.33;;;10.60;99.90;;;;;;4858545;29;20097;-90
2022/03/11 00:31:56;;;;;;;29.90;16.23;;;10.60;99.90;;;;;;4862992;29;20121;-91
2022/03/11 00:34:25;;;;;;;31.73;15.57;;;10.50;99.90;;;;;;4861640;29;20033;-91
2022/03/11 00:36:51;;;;;;;27.25;16.13;;;10.60;99.90;;;;;;4860750;29;20568;-90
2022/03/11 00:39:17;;;;;;;29.58;16.08;;;10.50;99.90;;;;;;4860435;29;20045;-89
2022/03/11 00:41:42;;;;;;;32.35;16.38;;;10.50;99.90;;;;;;4860098;29;20097;-88
2022/03/11 00:44:08;;;;;;;30.58;15.63;;;10.50;99.90;;;;;;4860146;29;20039;-89
2022/03/11 00:46:34;;;;;;;32.00;15.25;;;10.50;99.90;;;;;;4861010;29;20025;-88
2022/03/11 00:48:59;;;;;;;32.00;17.65;;;10.50;99.90;;;;;;4861674;29;20030;-89
2022/03/11 00:51:25;;;;;;;33.85;17.80;;;10.50;99.90;;;;;;4861511;29;20033;-89
2022/03/11 00:53:51;;;;;;;32.85;16.80;;;10.50;99.90;;;;;;4869076;29;20093;-89
2022/03/11 00:56:16;;;;;;;30.23;16.73;;;10.50;99.90;;;;;;4870709;29;20061;-89
2022/03/11 00:58:42;;;;;;;28.05;15.70;;;10.50;99.90;;;;;;4869861;29;20049;-88
2022/03/11 01:01:07;;;;;;;28.35;15.75;;;10.40;99.90;;;;;;4882325;29;20041;-89
2022/03/11 01:03:35;;;;;;;34.08;18.10;;;10.40;99.90;;;;;;4878404;29;20066;-89
2022/03/11 01:06:00;;;;;;;26.98;14.95;;;10.40;99.90;;;;;;4864129;29;20061;-87
2022/03/11 01:08:26;;;;;;;29.52;16.25;;;10.40;99.90;;;;;;4863468;29;20072;-90
2022/03/11 01:10:52;;;;;;;30.58;17.20;;;10.40;99.90;;;;;;4862314;29;20041;-90
2022/03/11 01:13:18;;;;;;;30.45;16.63;;;10.40;99.90;;;;;;4862547;29;20153;-90
2022/03/11 01:15:44;;;;;;;33.28;16.63;;;10.40;99.90;;;;;;4861856;29;20064;-92
2022/03/11 01:18:10;;;;;;;28.08;16.02;;;10.30;99.90;;;;;;4861017;29;20033;-90
2022/03/11 01:20:35;;;;;;;30.05;17.48;;;10.40;99.90;;;;;;4861091;29;20452;-89
2022/03/11 01:23:01;;;;;;;31.42;15.55;;;10.30;99.90;;;;;;4860921;29;20549;-90
2022/03/11 01:25:27;;;;;;;30.33;17.25;;;10.30;99.90;;;;;;4860842;29;20025;-90
2022/03/11 01:27:52;;;;;;;29.38;15.25;;;10.40;99.90;;;;;;4860547;29;20049;-91
2022/03/11 01:30:18;;;;;;;31.63;17.20;;;10.40;99.90;;;;;;4860743;29;20029;-90
2022/03/11 01:32:44;;;;;;;29.80;16.60;;;10.40;99.90;;;;;;4861205;29;20038;-90
2022/03/11 01:35:11;;;;;;;32.80;17.20;;;10.40;99.90;;;;;;4860849;29;20388;-90
2022/03/11 01:37:36;;;;;;;30.95;17.48;;;10.40;99.90;;;;;;4860689;29;20037;-90
2022/03/11 01:40:04;;;;;;;36.15;17.27;;;10.40;99.90;;;;;;4860217;29;20177;-91
2022/03/11 01:42:32;;;;;;;35.03;17.20;;;10.40;99.90;;;;;;4860798;29;20034;-90
2022/03/11 01:44:58;;;;;;;30.73;16.77;;;10.30;99.90;;;;;;4860700;29;20068;-90
2022/03/11 01:47:23;;;;;;;31.15;17.30;;;10.30;99.90;;;;;;4860454;29;20502;-89
2022/03/11 01:49:49;;;;;;;28.75;17.63;;;10.30;99.90;;;;;;4860781;29;20037;-90
2022/03/11 01:52:15;;;;;;;34.30;17.77;;;10.30;99.90;;;;;;4861047;29;20052;-89
2022/03/11 01:54:44;;;;;;;37.40;18.08;;;10.30;99.90;;;;;;4860541;29;20026;-89
2022/03/11 01:57:10;;;;;;;32.83;16.75;;;10.30;99.90;;;;;;4859832;29;20112;-90
2022/03/11 01:59:35;;;;;;;28.25;15.70;;;10.20;99.90;;;;;;4860284;29;20034;-90
2022/03/11 02:02:01;;;;;;;31.02;15.82;;;10.20;99.90;;;;;;4860051;29;20036;-89
2022/03/11 02:04:27;;;;;;;31.67;16.10;;;10.20;99.90;;;;;;4860274;29;20376;-90
2022/03/11 02:06:53;;;;;;;29.73;16.35;;;10.20;99.90;;;;;;4859759;29;20046;-92
2022/03/11 02:09:19;;;;;;;30.08;15.95;;;10.10;99.90;;;;;;4860215;29;20068;-90
2022/03/11 02:11:48;;;;;;;34.83;17.92;;;10.20;99.90;;;;;;4860608;29;20026;-89
2022/03/11 02:14:14;;;;;;;31.83;17.13;;;10.10;99.90;;;;;;4860227;29;20057;-91
2022/03/11 02:16:40;;;;;;;33.60;17.15;;;10.10;99.90;;;;;;4859968;29;20049;-90
2022/03/11 02:19:07;;;;;;;34.78;17.15;;;10.20;99.90;;;;;;4859895;29;20037;-89
2022/03/11 02:21:42;;;;;;;34.63;17.75;;;10.10;99.90;;;;;;4859953;29;20025;-91
2022/03/11 02:24:09;;;;;;;30.45;15.60;;;10.10;99.90;;;;;;4859704;29;20058;-90
2022/03/11 02:26:36;;;;;;;31.67;16.95;;;10.10;99.90;;;;;;4859456;29;20116;-91
2022/03/11 02:29:03;;;;;;;35.78;17.80;;;10.10;99.90;;;;;;4860091;29;20092;-88
2022/03/11 02:31:30;;;;;;;32.00;17.08;;;10.10;99.90;;;;;;4863103;29;20033;-90
2022/03/11 02:33:58;;;;;;;38.70;19.63;;;10.10;99.90;;;;;;4862997;29;20120;-90
2022/03/11 02:36:24;;;;;;;37.83;19.00;;;10.10;99.90;;;;;;4862833;29;20029;-89
2022/03/11 02:38:50;;;;;;;36.20;19.35;;;10.00;99.90;;;;;;4862900;29;20048;-89
2022/03/11 02:41:16;;;;;;;36.25;17.90;;;10.00;99.90;;;;;;4863000;29;20030;-91
2022/03/11 02:43:42;;;;;;;37.50;18.75;;;10.00;99.90;;;;;;4862618;29;20048;-90
2022/03/11 02:46:09;;;;;;;35.85;19.15;;;10.00;99.90;;;;;;4862948;29;20032;-90
2022/03/11 02:48:35;;;;;;;36.10;17.77;;;10.00;99.90;;;;;;4862912;29;20539;-89
2022/03/11 02:51:02;;;;;;;39.15;20.77;;;10.00;99.90;;;;;;4863248;29;20034;-89
2022/03/11 02:53:27;;;;;;;34.25;18.73;;;10.00;99.90;;;;;;4862047;29;20033;-90
2022/03/11 02:55:53;;;;;;;38.75;17.95;;;9.90;99.90;;;;;;4862099;29;20502;-91
2022/03/11 02:58:19;;;;;;;43.90;20.83;;;9.90;99.90;;;;;;4862347;29;20049;-91
2022/03/11 03:00:45;;;;;;;40.65;20.20;;;9.90;99.90;;;;;;4862398;29;20037;-91
2022/03/11 03:03:11;;;;;;;38.72;20.05;;;9.90;99.90;;;;;;4862272;29;20037;-91
2022/03/11 03:05:37;;;;;;;38.85;21.55;;;9.90;99.90;;;;;;4862825;29;20208;-90
2022/03/11 03:08:03;;;;;;;39.67;20.67;;;9.90;99.90;;;;;;4862968;29;20512;-90
2022/03/11 03:10:28;;;;;;;43.80;20.80;;;9.90;99.90;;;;;;4864108;29;20029;-91
2022/03/11 03:12:54;;;;;;;39.33;19.70;;;9.90;99.90;;;;;;4864485;29;20029;-90
2022/03/11 03:15:20;;;;;;;33.72;18.13;;;9.90;99.90;;;;;;4883928;29;20032;-91
2022/03/11 03:17:46;;;;;;;36.95;19.90;;;9.90;99.90;;;;;;4886599;29;20037;-91
2022/03/11 03:20:12;;;;;;;39.20;19.40;;;9.90;99.90;;;;;;4885556;29;20036;-91
2022/03/11 03:22:38;;;;;;;31.25;17.27;;;9.80;99.90;;;;;;4885700;29;20028;-92
2022/03/11 03:25:04;;;;;;;34.40;18.52;;;9.90;99.90;;;;;;4883368;29;20037;-91
2022/03/11 03:27:30;;;;;;;36.10;16.27;;;9.90;99.90;;;;;;4881659;29;20038;-90
2022/03/11 03:29:56;;;;;;;39.00;19.40;;;9.90;99.90;;;;;;4875165;29;20034;-89
2022/03/11 03:32:22;;;;;;;35.70;19.33;;;9.90;99.90;;;;;;4867445;29;20037;-90
2022/03/11 03:34:48;;;;;;;34.13;17.90;;;9.80;99.90;;;;;;4862750;29;20037;-91
2022/03/11 03:37:14;;;;;;;38.22;20.27;;;9.80;99.90;;;;;;4862784;29;20068;-89
2022/03/11 03:39:41;;;;;;;38.72;20.90;;;9.80;99.90;;;;;;4861760;29;20066;-90
2022/03/11 03:42:07;;;;;;;39.70;19.83;;;9.80;99.90;;;;;;4861827;29;20424;-91
2022/03/11 03:44:34;;;;;;;40.70;19.40;;;9.80;99.90;;;;;;4861875;29;20120;-90
2022/03/11 03:47:00;;;;;;;34.55;19.33;;;9.80;99.90;;;;;;4862129;29;20576;-91
2022/03/11 03:49:25;;;;;;;41.03;20.48;;;9.80;99.90;;;;;;4861734;29;20124;-92
2022/03/11 03:51:52;;;;;;;32.80;18.92;;;9.70;99.90;;;;;;4861261;29;20022;-90
2022/03/11 03:54:18;;;;;;;39.15;18.92;;;9.70;99.90;;;;;;4861171;29;20494;-89
2022/03/11 03:56:44;;;;;;;37.78;19.70;;;9.70;99.90;;;;;;4861589;29;20053;-90
2022/03/11 03:59:11;;;;;;;37.65;17.80;;;9.70;99.90;;;;;;4861203;29;20156;-91
2022/03/11 04:01:40;;;;;;;34.03;17.35;;;9.70;99.90;;;;;;4861023;29;20034;-90
2022/03/11 04:04:06;;;;;;;36.85;18.90;;;9.70;99.90;;;;;;4861712;29;20071;-89
2022/03/11 04:06:34;;;;;;;42.22;20.58;;;9.70;99.90;;;;;;4862180;29;20503;-90
2022/03/11 04:09:03;;;;;;;38.30;18.92;;;9.70;99.90;;;;;;4862172;29;20033;-90
2022/03/11 04:11:28;;;;;;;33.55;17.02;;;9.80;99.90;;;;;;4861675;29;20555;-90
2022/03/11 04:13:55;;;;;;;33.08;17.13;;;9.70;99.90;;;;;;4861685;29;20034;-91
2022/03/11 04:16:21;;;;;;;37.75;18.67;;;9.70;99.90;;;;;;4862145;29;20033;-90
2022/03/11 04:18:47;;;;;;;38.40;19.48;;;9.80;99.90;;;;;;4861354;29;20041;-90
2022/03/11 04:21:13;;;;;;;38.72;19.08;;;9.70;99.90;;;;;;4860752;29;20107;-90
2022/03/11 04:23:41;;;;;;;39.70;19.52;;;9.70;99.90;;;;;;4860880;29;20058;-91
2022/03/11 04:26:06;;;;;;;41.40;20.20;;;9.70;99.90;;;;;;4860950;29;20102;-90
2022/03/11 04:28:33;;;;;;;39.00;19.95;;;9.70;99.90;;;;;;4860655;29;20126;-90
2022/03/11 04:30:59;;;;;;;43.60;20.58;;;9.70;99.90;;;;;;4861020;29;20567;-91
2022/03/11 04:33:25;;;;;;;39.35;20.38;;;9.70;99.90;;;;;;4860741;29;20120;-90
2022/03/11 04:35:51;;;;;;;37.72;19.58;;;9.70;99.90;;;;;;4862498;29;20038;-90
2022/03/11 04:38:16;;;;;;;42.25;21.13;;;9.60;99.90;;;;;;4862708;29;20049;-90
2022/03/11 04:40:42;;;;;;;40.17;19.90;;;9.60;99.90;;;;;;4862945;29;20381;-91
2022/03/11 04:43:08;;;;;;;48.22;21.00;;;9.70;99.90;;;;;;4862077;29;20045;-91
2022/03/11 04:45:34;;;;;;;36.63;20.23;;;9.60;99.90;;;;;;4868952;29;20124;-91
2022/03/11 04:48:00;;;;;;;40.28;20.75;;;9.60;99.90;;;;;;4875945;29;20033;-90
2022/03/11 04:50:26;;;;;;;39.58;19.70;;;9.60;99.90;;;;;;4875703;29;20097;-90
2022/03/11 04:52:52;;;;;;;55.95;21.38;;;9.60;99.90;;;;;;4866612;29;20030;-90
2022/03/11 04:55:18;;;;;;;31.70;16.65;;;9.60;99.90;;;;;;4867932;29;20032;-90
2022/03/11 04:57:44;;;;;;;40.60;19.85;;;9.60;99.90;;;;;;4869210;29;20045;-90
2022/03/11 05:00:11;;;;;;;33.88;17.90;;;9.60;99.90;;;;;;4860658;29;20057;-90
2022/03/11 05:02:40;;;;;;;36.00;17.77;;;9.50;99.90;;;;;;4860599;29;20042;-90
2022/03/11 05:05:07;;;;;;;35.00;17.60;;;9.50;99.90;;;;;;4860670;29;20026;-89
2022/03/11 05:07:33;;;;;;;35.17;16.58;;;9.50;99.90;;;;;;4860391;29;20517;-91
2022/03/11 05:09:59;;;;;;;34.90;17.05;;;9.50;99.90;;;;;;4860387;29;20167;-89
2022/03/11 05:12:25;;;;;;;37.50;17.17;;;9.50;99.90;;;;;;4860427;29;20128;-90
2022/03/11 05:14:51;;;;;;;35.53;17.90;;;9.50;99.90;;;;;;4860227;29;20025;-89
2022/03/11 05:17:17;;;;;;;35.00;18.38;;;9.50;99.90;;;;;;4860493;29;20042;-90
2022/03/11 05:19:43;;;;;;;31.95;16.70;;;9.50;99.90;;;;;;4860276;29;20029;-90
2022/03/11 05:22:09;;;;;;;30.80;16.77;;;9.40;99.90;;;;;;4859830;29;20116;-91
2022/03/11 05:24:35;;;;;;;26.88;15.43;;;9.40;99.90;;;;;;4860098;29;20129;-90
2022/03/11 05:27:02;;;;;;;30.90;15.45;;;9.40;99.90;;;;;;4859709;29;20033;-89
2022/03/11 05:29:29;;;;;;;31.75;16.25;;;9.40;99.90;;;;;;4859725;29;20053;-90
2022/03/11 05:31:54;;;;;;;34.15;16.15;;;9.30;99.90;;;;;;4859502;29;20029;-90
2022/03/11 05:34:20;;;;;;;30.92;16.60;;;9.30;99.90;;;;;;4859832;29;20416;-90
2022/03/11 05:36:46;;;;;;;28.30;13.90;;;9.30;99.90;;;;;;4860334;29;20054;-91
2022/03/11 05:39:13;;;;;;;27.13;15.20;;;9.30;99.90;;;;;;4860553;29;20125;-89
2022/03/11 05:41:38;;;;;;;33.03;15.07;;;9.20;99.90;;;;;;4859817;29;20029;-90
2022/03/11 05:44:05;;;;;;;32.78;16.98;;;9.20;99.90;;;;;;4860305;29;20038;-91
2022/03/11 05:46:30;;;;;;;33.20;16.27;;;9.20;99.90;;;;;;4860592;29;20113;-90
2022/03/11 05:48:56;;;;;;;30.98;15.52;;;9.20;99.90;;;;;;4860059;29;20109;-89
2022/03/11 05:51:22;;;;;;;32.88;16.65;;;9.10;99.90;;;;;;4860112;29;20108;-90
2022/03/11 05:53:47;;;;;;;33.67;16.90;;;9.20;99.90;;;;;;4859977;29;20029;-89
2022/03/11 05:56:13;;;;;;;31.88;16.75;;;9.10;99.90;;;;;;4860018;29;20129;-87
2022/03/11 05:58:39;;;;;;;28.52;16.08;;;9.10;99.90;;;;;;4860091;29;20351;-90
2022/03/11 06:01:05;;;;;;;31.58;16.10;;;9.10;99.90;;;;;;4859860;29;20030;-90
2022/03/11 06:03:31;;;;;;;29.52;15.00;;;9.00;99.90;;;;;;4861107;29;20030;-89
2022/03/11 06:05:57;;;;;;;28.10;14.45;;;9.00;99.90;;;;;;4863827;29;20030;-90
2022/03/11 06:08:23;;;;;;;32.03;15.35;;;9.00;99.90;;;;;;4863929;29;20076;-90
2022/03/11 06:10:49;;;;;;;27.25;14.77;;;8.90;99.90;;;;;;4863448;29;20055;-91
2022/03/11 06:13:15;;;;;;;31.60;15.05;;;8.90;99.90;;;;;;4863499;29;20105;-91
2022/03/11 06:15:43;;;;;;;32.92;14.73;;;8.90;99.90;;;;;;4863532;29;20028;-90
2022/03/11 06:18:10;;;;;;;30.25;15.98;;;8.80;99.90;;;;;;4864135;29;20045;-90
2022/03/11 06:20:36;;;;;;;31.40;13.90;;;8.80;99.90;;;;;;4864109;29;20070;-90
2022/03/11 06:23:02;;;;;;;33.40;15.95;;;8.80;99.90;;;;;;4867403;29;20033;-91
2022/03/11 06:25:28;;;;;;;32.05;15.63;;;8.80;99.90;;;;;;4865056;29;20053;-90
2022/03/11 06:27:54;;;;;;;31.77;15.82;;;8.80;99.90;;;;;;4873844;29;20044;-91
2022/03/11 06:30:19;;;;;;;31.00;15.55;;;8.70;99.90;;;;;;4882175;29;20049;-90
2022/03/11 06:32:47;;;;;;;31.60;16.15;;;8.70;99.90;;;;;;4877419;29;20053;-91
2022/03/11 06:35:15;;;;;;;29.27;14.48;;;8.70;99.90;;;;;;4875422;29;20080;-91
2022/03/11 06:37:42;;;;;;;30.40;15.25;;;8.70;99.90;;;;;;4871268;29;20026;-91
2022/03/11 06:40:09;;;;;;;29.63;14.90;;;8.70;99.90;;;;;;4873060;29;20052;-89
2022/03/11 06:42:54;;;;;;;28.25;15.63;;;8.70;99.90;;;;;;4873431;29;20034;-89
2022/03/11 06:45:21;;;;;;;32.60;14.85;;;8.60;99.90;;;;;;4863449;29;20037;-89
2022/03/11 06:47:47;;;;;;;29.02;13.85;;;8.60;99.90;;;;;;4861555;29;20429;-90
2022/03/11 06:50:14;;;;;;;29.75;16.02;;;8.60;99.90;;;;;;4863602;29;20030;-91
2022/03/11 06:52:40;;;;;;;29.08;13.70;;;8.60;99.90;;;;;;4863464;29;20028;-88
2022/03/11 06:55:07;;;;;;;24.27;12.38;;;8.60;99.90;;;;;;4862764;29;20037;-89
2022/03/11 06:57:34;;;;;;;30.98;15.52;;;8.60;99.90;;;;;;4868448;29;20029;-88
2022/03/11 07:00:00;;;;;;;31.13;15.73;;;8.60;99.90;;;;;;4863314;29;20053;-89
2022/03/11 07:02:25;;;;;;;30.08;15.23;;;8.60;99.90;;;;;;4864170;29;20029;-90
2022/03/11 07:04:51;;;;;;;34.42;17.27;;;8.60;99.90;;;;;;4863449;29;20483;-91
2022/03/11 07:07:17;;;;;;;27.75;15.32;;;8.60;99.90;;;;;;4862737;29;20069;-88
2022/03/11 07:09:42;;;;;;;25.02;11.43;;;8.60;99.90;;;;;;4855441;29;20025;-90
2022/03/11 07:12:08;;;;;;;28.50;12.68;;;8.60;99.90;;;;;;4863684;29;20041;-91
2022/03/11 07:14:38;;;;;;;26.80;12.57;;;8.60;99.90;;;;;;4861371;29;20120;-91
2022/03/11 07:17:04;;;;;;;26.73;13.68;;;8.60;99.90;;;;;;4861882;29;20488;-89
2022/03/11 07:19:32;;;;;;;34.83;14.18;;;8.60;99.90;;;;;;4862211;29;20500;-90
2022/03/11 07:22:02;;;;;;;30.33;14.73;;;8.60;99.90;;;;;;4862817;29;20029;-91
2022/03/11 07:24:28;;;;;;;24.80;13.23;;;8.70;99.90;;;;;;4860005;29;20077;-91
2022/03/11 07:26:54;;;;;;;27.40;13.25;;;8.70;99.90;;;;;;4862929;29;20025;-90
2022/03/11 07:29:20;;;;;;;30.85;14.20;;;8.70;99.90;;;;;;4863409;29;20083;-90
2022/03/11 07:31:45;;;;;;;27.45;14.15;;;8.70;99.90;;;;;;4862931;29;20025;-91
2022/03/11 07:34:12;;;;;;;28.60;14.07;;;8.80;99.90;;;;;;4860758;29;20030;-91
2022/03/11 07:36:38;;;;;;;30.02;15.55;;;8.80;99.90;;;;;;4862545;29;20511;-92
2022/03/11 07:39:05;;;;;;;25.05;13.20;;;8.80;99.90;;;;;;4858652;29;20050;-90
2022/03/11 07:41:32;;;;;;;28.98;13.95;;;8.80;99.90;;;;;;4859768;29;20036;-89
2022/03/11 07:43:58;;;;;;;31.35;15.13;;;8.80;99.90;;;;;;4861483;29;20198;-89
2022/03/11 07:46:24;;;;;;;27.35;13.30;;;8.90;99.90;;;;;;4859216;29;20531;-89
2022/03/11 07:48:50;;;;;;;26.13;12.82;;;8.90;99.90;;;;;;4862884;29;20064;-90
2022/03/11 07:51:16;;;;;;;28.25;14.20;;;8.90;99.90;;;;;;4862498;29;20068;-91
2022/03/11 07:53:42;;;;;;;31.27;13.50;;;8.90;99.90;;;;;;4862647;29;20040;-91
2022/03/11 07:56:10;;;;;;;27.77;13.85;;;9.00;99.90;;;;;;4862675;29;20045;-91
2022/03/11 07:58:36;;;;;;;30.17;15.48;;;9.00;99.90;;;;;;4861203;29;20034;-90
2022/03/11 08:01:04;;;;;;;29.48;13.93;;;9.00;99.90;;;;;;4861519;29;20037;-91
2022/03/11 08:03:30;;;;;;;29.25;14.48;;;9.10;99.90;;;;;;4862457;29;20029;-91
2022/03/11 08:05:56;;;;;;;27.65;14.48;;;9.10;99.90;;;;;;4864655;29;20026;-91
2022/03/11 08:08:22;;;;;;;24.08;13.23;;;9.10;99.90;;;;;;4864586;29;20053;-91
2022/03/11 08:10:48;;;;;;;34.25;14.15;;;9.10;99.90;;;;;;4862244;29;20030;-91
2022/03/11 08:13:14;;;;;;;24.45;11.18;;;9.20;99.90;;;;;;4861328;29;20037;-93
2022/03/11 08:15:39;;;;;;;28.17;13.52;;;9.10;99.90;;;;;;4859972;29;20026;-92
2022/03/11 08:18:05;;;;;;;24.23;13.75;;;9.20;99.90;;;;;;4859438;29;20056;-92
2022/03/11 08:20:31;;;;;;;30.48;14.45;;;9.20;99.90;;;;;;4863011;29;20022;-94
2022/03/11 08:22:56;;;;;;;21.70;10.93;;;9.20;99.90;;;;;;4863749;29;20712;-92
2022/03/11 08:25:26;;;;;;;28.05;13.30;;;9.30;99.90;;;;;;4859840;29;20056;-92
2022/03/11 08:27:54;;;;;;;20.95;11.07;;;9.30;99.90;;;;;;4861317;29;20461;-93
2022/03/11 08:30:20;;;;;;;26.55;12.27;;;9.30;99.90;;;;;;4861824;29;20109;-90
2022/03/11 08:32:48;;;;;;;26.33;12.98;;;9.30;99.90;;;;;;4862929;29;20038;-91
2022/03/11 08:35:14;;;;;;;23.27;12.35;;;9.30;99.90;;;;;;4870375;29;20036;-93
2022/03/11 08:37:40;;;;;;;27.52;13.45;;;9.30;99.90;;;;;;4861168;29;20030;-93
2022/03/11 08:40:07;;;;;;;22.48;11.68;;;9.40;99.90;;;;;;4861161;29;20385;-92
2022/03/11 08:42:37;;;;;;;22.55;11.68;;;9.40;99.90;;;;;;4859695;29;20026;-91
2022/03/11 08:45:04;;;;;;;24.75;12.15;;;9.40;99.90;;;;;;4860762;29;20086;-92
2022/03/11 08:47:30;;;;;;;31.02;12.60;;;9.50;99.90;;;;;;4861122;29;20022;-92
2022/03/11 08:49:56;;;;;;;21.85;10.63;;;9.50;99.90;;;;;;4860785;29;20052;-90
2022/03/11 08:52:25;;;;;;;25.17;11.70;;;9.50;99.90;;;;;;4875657;29;20025;-91
2022/03/11 08:54:52;;;;;;;20.77;10.63;;;9.60;99.90;;;;;;4862392;29;20037;-91
2022/03/11 08:57:17;;;;;;;27.05;13.40;;;9.70;99.90;;;;;;4856833;29;20085;-90
2022/03/11 08:59:43;;;;;;;24.48;12.05;;;9.70;99.90;;;;;;4870527;29;20125;-91
2022/03/11 09:02:09;;;;;;;19.35;9.23;;;9.70;99.90;;;;;;4861962;29;20432;-89
2022/03/11 09:04:35;;;;;;;23.27;11.52;;;9.70;99.90;;;;;;4861533;29;20033;-92
2022/03/11 09:07:02;;;;;;;25.40;10.93;;;9.80;99.90;;;;;;4860579;29;20033;-90
2022/03/11 09:09:28;;;;;;;17.75;9.80;;;9.80;99.90;;;;;;4858766;29;20044;-92
2022/03/11 09:11:53;;;;;;;24.08;11.27;;;9.90;99.90;;;;;;4858788;29;20086;-91
2022/03/11 09:14:19;;;;;;;18.02;9.60;;;9.90;99.90;;;;;;4861547;29;20441;-92
2022/03/11 09:16:45;;;;;;;24.70;11.15;;;9.90;99.90;;;;;;4860800;29;20037;-90
2022/03/11 09:19:11;;;;;;;26.33;12.63;;;9.90;99.90;;;;;;4864113;29;20115;-90
2022/03/11 09:21:37;;;;;;;24.10;11.98;;;9.90;99.90;;;;;;4861793;29;20055;-92
2022/03/11 09:24:03;;;;;;;20.15;10.75;;;9.90;99.90;;;;;;4861446;29;20109;-91
2022/03/11 09:26:29;;;;;;;23.85;9.55;;;10.00;99.90;;;;;;4860068;29;20026;-89
2022/03/11 09:28:55;;;;;;;18.90;9.75;;;10.00;99.90;;;;;;4860268;29;20061;-93
2022/03/11 09:31:22;;;;;;;21.20;11.15;;;10.10;99.90;;;;;;4860468;29;20080;-91
2022/03/11 09:33:47;;;;;;;23.80;12.20;;;10.10;99.90;;;;;;4859219;29;20073;-92
2022/03/11 09:36:13;;;;;;;26.05;12.07;;;10.20;99.90;;;;;;4860548;29;20485;-90
2022/03/11 09:38:38;;;;;;;22.20;10.07;;;10.30;99.90;;;;;;4860664;29;20416;-92
2022/03/11 09:41:05;;;;;;;22.83;11.25;;;10.30;99.90;;;;;;4873652;29;20102;-91
2022/03/11 09:43:35;;;;;;;23.40;12.25;;;10.40;99.90;;;;;;4876242;29;20029;-90
2022/03/11 09:46:02;;;;;;;26.60;12.15;;;10.40;99.90;;;;;;4878658;29;20033;-93
2022/03/11 09:48:28;;;;;;;22.67;10.75;;;10.50;99.90;;;;;;4879317;29;20047;-93
2022/03/11 09:50:55;;;;;;;17.75;9.40;;;10.60;99.90;;;;;;4878821;29;20041;-90
2022/03/11 09:53:22;;;;;;;21.88;11.05;;;10.80;99.90;;;;;;4876233;29;20034;-91
2022/03/11 09:55:48;;;;;;;17.80;8.80;;;10.90;99.90;;;;;;4859244;29;20033;-91
2022/03/11 09:58:14;;;;;;;19.08;10.07;;;10.80;99.90;;;;;;4844058;29;20053;-90
2022/03/11 10:00:40;;;;;;;17.50;8.93;;;10.90;99.90;;;;;;4858677;29;20034;-91
2022/03/11 10:03:06;;;;;;;19.55;10.63;;;10.90;99.90;;;;;;4843160;29;20345;-91
2022/03/11 10:05:46;;;;;;;19.23;9.85;;;10.90;99.90;;;;;;4842973;29;20026;-91
2022/03/11 10:08:12;;;;;;;22.55;10.55;;;11.00;99.90;;;;;;4841768;29;20089;-92
2022/03/11 10:10:38;;;;;;;22.08;9.73;;;11.00;99.90;;;;;;4841640;29;20026;-91
2022/03/11 10:13:07;;;;;;;21.73;10.23;;;11.10;99.90;;;;;;4841646;29;20030;-91
2022/03/11 10:15:32;;;;;;;20.88;10.48;;;11.10;99.90;;;;;;4857686;29;20174;-90
2022/03/11 10:18:02;;;;;;;19.70;9.63;;;11.20;99.90;;;;;;4841763;29;20128;-92
2022/03/11 10:20:29;;;;;;;19.35;10.23;;;11.20;99.90;;;;;;4842086;29;20050;-90
2022/03/11 10:22:57;;;;;;;18.33;9.00;;;11.20;99.90;;;;;;4842068;29;20034;-91
2022/03/11 10:25:25;;;;;;;17.77;9.65;;;11.10;99.90;;;;;;4847534;29;20034;-92
2022/03/11 10:28:07;;;;;;;19.00;9.60;;;11.10;99.90;;;;;;4860341;29;20461;-93
2022/03/11 10:30:35;;;;;;;17.95;8.95;;;11.10;99.90;;;;;;4859736;29;20033;-91
2022/03/11 10:33:04;;;;;;;19.38;10.68;;;11.10;99.90;;;;;;4860369;29;20056;-93
2022/03/11 10:35:38;;;;;;;21.73;10.98;;;11.10;99.90;;;;;;4860118;29;20033;-90
2022/03/11 10:38:09;;;;;;;21.30;9.35;;;11.00;99.90;;;;;;4875798;29;20140;-90
2022/03/11 10:40:48;;;;;;;18.85;9.02;;;11.00;99.90;;;;;;4860467;29;20026;-93
2022/03/11 10:43:16;;;;;;;19.65;8.32;;;11.00;99.90;;;;;;4861996;29;20036;-91
2022/03/11 10:45:52;;;;;;;19.95;10.70;;;11.00;99.90;;;;;;4860816;29;20025;-93
2022/03/11 10:48:38;;;;;;;20.60;10.27;;;10.90;99.90;;;;;;4861212;29;20034;-92
2022/03/11 10:51:08;;;;;;;25.50;11.15;;;10.90;99.90;;;;;;4862434;29;20522;-92
2022/03/11 10:53:40;;;;;;;19.73;10.35;;;10.90;99.90;;;;;;4878677;29;20041;-89
2022/03/11 10:56:07;;;;;;;23.17;11.20;;;10.80;99.90;;;;;;4862712;29;20029;-90
2022/03/11 10:58:36;;;;;;;24.77;11.23;;;10.90;99.90;;;;;;4863344;29;20044;-92
2022/03/11 11:01:02;;;;;;;20.60;10.57;;;10.90;99.90;;;;;;4862408;29;20052;-93
2022/03/11 11:03:28;;;;;;;23.90;11.35;;;11.00;99.90;;;;;;4862426;29;20063;-92
2022/03/11 11:05:55;;;;;;;23.55;11.82;;;11.00;99.90;;;;;;4862802;29;20029;-90
2022/03/11 11:08:21;;;;;;;22.67;11.68;;;11.10;99.90;;;;;;4862819;29;20053;-92
2022/03/11 11:10:47;;;;;;;21.20;11.32;;;11.10;99.90;;;;;;4878116;29;20080;-91
2022/03/11 11:13:12;;;;;;;29.58;11.38;;;11.10;99.90;;;;;;4862913;29;20057;-91
2022/03/11 11:15:39;;;;;;;26.42;10.77;;;11.10;99.90;;;;;;4862706;29;20124;-91
2022/03/11 11:18:12;;;;;;;28.90;11.00;;;11.10;99.90;;;;;;4863605;29;20124;-92
2022/03/11 11:20:58;;;;;;;27.90;13.77;;;11.10;99.90;;;;;;4862409;29;20033;-92
2022/03/11 11:23:24;;;;;;;20.58;10.40;;;11.10;99.90;;;;;;4861900;29;20037;-92
2022/03/11 11:25:51;;;;;;;20.30;9.73;;;11.10;99.90;;;;;;4866111;29;20022;-91
2022/03/11 11:28:22;;;;;;;23.63;12.00;;;11.00;99.90;;;;;;4845903;29;21506;-90
2022/03/11 11:30:55;;;;;;;23.58;12.35;;;11.00;99.90;;;;;;4877904;29;20029;-91
2022/03/11 11:33:21;;;;;;;24.35;12.82;;;11.00;99.90;;;;;;4862185;29;20033;-90
2022/03/11 11:35:47;;;;;;;22.63;12.10;;;11.00;99.90;;;;;;4862687;29;20125;-89
2022/03/11 11:38:31;;;;;;;21.45;10.88;;;11.10;99.90;;;;;;4862308;29;20116;-90
2022/03/11 11:40:58;;;;;;;19.83;11.35;;;11.10;99.90;;;;;;4861200;29;20049;-90
2022/03/11 11:43:27;;;;;;;23.45;11.85;;;11.10;99.90;;;;;;4861334;29;20132;-91
2022/03/11 11:45:56;;;;;;;20.98;10.43;;;11.10;99.90;;;;;;4865869;29;20149;-91
2022/03/11 11:48:42;;;;;;;24.33;11.70;;;11.10;99.90;;;;;;4860377;29;20544;-92
2022/03/11 11:51:11;;;;;;;23.88;11.00;;;11.10;99.90;;;;;;4862690;29;20024;-88
2022/03/11 11:53:41;;;;;;;19.55;10.93;;;11.10;99.90;;;;;;4860654;29;20030;-90
2022/03/11 11:56:39;;;;;;;27.30;12.32;;;11.00;99.90;;;;;;4861439;29;20025;-92
2022/03/11 11:59:20;;;;;;;20.88;10.73;;;11.00;99.90;;;;;;4859090;29;20049;-90
2022/03/11 12:01:55;;;;;;;22.13;11.30;;;11.00;99.90;;;;;;4858659;29;20120;-90
2022/03/11 12:04:37;;;;;;;17.73;10.25;;;10.90;99.90;;;;;;4847873;29;20049;-93
2022/03/11 12:07:14;;;;;;;21.55;11.85;;;10.90;99.90;;;;;;4843416;29;20050;-92
2022/03/11 12:09:42;;;;;;;23.10;12.30;;;10.80;99.90;;;;;;4843154;29;20034;-92
2022/03/11 12:12:20;;;;;;;17.60;9.45;;;10.70;99.90;;;;;;4843960;29;20037;-93
2022/03/11 12:15:04;;;;;;;18.40;10.90;;;10.70;99.90;;;;;;4843361;29;20038;-93
2022/03/11 12:17:43;;;;;;;24.02;11.32;;;10.70;99.90;;;;;;4843441;29;20042;-94
2022/03/11 12:20:21;;;;;;;20.58;11.73;;;10.60;99.90;;;;;;4846327;29;20030;-92
2022/03/11 12:23:06;;;;;;;23.45;11.07;;;10.60;99.90;;;;;;4843355;29;20036;-94
2022/03/11 12:25:36;;;;;;;21.15;11.07;;;10.60;99.90;;;;;;4843076;29;20113;-91
2022/03/11 12:28:13;;;;;;;18.08;10.60;;;10.70;99.90;;;;;;4843637;29;20105;-91
2022/03/11 12:30:47;;;;;;;21.20;11.82;;;10.60;99.90;;;;;;4842953;29;20022;-92
2022/03/11 12:33:19;;;;;;;20.58;10.80;;;10.80;99.90;;;;;;4843540;29;20483;-92